sensor_id;sensor_type;location;lat;lon;timestamp;P1;durP1;ratioP1;P2;durP2;ratioP2
48823;SDS011;34640;53.590;10.054;2024-03-17T00:02:22;23.05;;;2.40;;
48823;SDS011;34640;53.590;10.054;2024-03-17T00:04:54;22.13;;;1.98;;
48823;SDS011;34640;53.590;10.054;2024-03-17T00:07:25;34.63;;;2.97;;
48823;SDS011;34640;53.590;10.054;2024-03-17T00:09:58;24.35;;;2.33;;
48823;SDS011;34640;53.590;10.054;2024-03-17T00:12:29;32.92;;;2.53;;
48823;SDS011;34640;53.590;10.054;2024-03-17T00:15:02;24.02;;;3.92;;
48823;SDS011;34640;53.590;10.054;2024-03-17T00:17:34;23.30;;;2.38;;
48823;SDS011;34640;53.590;10.054;2024-03-17T00:20:06;19.67;;;2.08;;
48823;SDS011;34640;53.590;10.054;2024-03-17T00:22:41;23.75;;;3.80;;
48823;SDS011;34640;53.590;10.054;2024-03-17T00:25:14;22.25;;;2.80;;
48823;SDS011;34640;53.590;10.054;2024-03-17T00:27:45;23.92;;;2.63;;
48823;SDS011;34640;53.590;10.054;2024-03-17T00:30:21;23.77;;;2.10;;
48823;SDS011;34640;53.590;10.054;2024-03-17T00:32:52;26.27;;;2.65;;
48823;SDS011;34640;53.590;10.054;2024-03-17T00:35:24;27.23;;;5.28;;
48823;SDS011;34640;53.590;10.054;2024-03-17T00:37:56;29.33;;;2.47;;
48823;SDS011;34640;53.590;10.054;2024-03-17T00:40:29;10.57;;;1.88;;
48823;SDS011;34640;53.590;10.054;2024-03-17T00:43:00;24.45;;;2.60;;
48823;SDS011;34640;53.590;10.054;2024-03-17T00:45:33;20.92;;;2.65;;
48823;SDS011;34640;53.590;10.054;2024-03-17T00:48:05;19.85;;;3.38;;
48823;SDS011;34640;53.590;10.054;2024-03-17T00:50:38;22.80;;;2.58;;
48823;SDS011;34640;53.590;10.054;2024-03-17T00:53:10;23.85;;;2.42;;
48823;SDS011;34640;53.590;10.054;2024-03-17T00:55:42;17.00;;;2.33;;
48823;SDS011;34640;53.590;10.054;2024-03-17T00:58:13;22.95;;;2.30;;
48823;SDS011;34640;53.590;10.054;2024-03-17T01:00:47;24.95;;;2.47;;
48823;SDS011;34640;53.590;10.054;2024-03-17T01:03:18;18.80;;;2.83;;
48823;SDS011;34640;53.590;10.054;2024-03-17T01:05:51;26.83;;;3.28;;
48823;SDS011;34640;53.590;10.054;2024-03-17T01:08:23;25.67;;;2.20;;
48823;SDS011;34640;53.590;10.054;2024-03-17T01:10:56;23.60;;;2.08;;
48823;SDS011;34640;53.590;10.054;2024-03-17T01:13:28;17.90;;;2.08;;
48823;SDS011;34640;53.590;10.054;2024-03-17T01:16:02;22.80;;;2.92;;
48823;SDS011;34640;53.590;10.054;2024-03-17T01:18:35;28.05;;;2.25;;
48823;SDS011;34640;53.590;10.054;2024-03-17T01:21:07;30.10;;;3.08;;
48823;SDS011;34640;53.590;10.054;2024-03-17T01:23:38;22.63;;;2.47;;
48823;SDS011;34640;53.590;10.054;2024-03-17T01:26:11;22.48;;;2.42;;
48823;SDS011;34640;53.590;10.054;2024-03-17T01:28:43;21.00;;;2.17;;
48823;SDS011;34640;53.590;10.054;2024-03-17T01:31:19;26.30;;;3.05;;
48823;SDS011;34640;53.590;10.054;2024-03-17T01:33:51;17.88;;;2.22;;
48823;SDS011;34640;53.590;10.054;2024-03-17T01:36:23;21.85;;;2.90;;
48823;SDS011;34640;53.590;10.054;2024-03-17T01:38:53;15.07;;;2.00;;
48823;SDS011;34640;53.590;10.054;2024-03-17T01:41:26;19.85;;;2.25;;
48823;SDS011;34640;53.590;10.054;2024-03-17T01:43:58;15.13;;;2.20;;
48823;SDS011;34640;53.590;10.054;2024-03-17T01:46:31;41.47;;;5.75;;
48823;SDS011;34640;53.590;10.054;2024-03-17T01:49:03;15.18;;;1.85;;
48823;SDS011;34640;53.590;10.054;2024-03-17T01:51:35;31.13;;;2.58;;
48823;SDS011;34640;53.590;10.054;2024-03-17T01:54:06;25.83;;;2.33;;
48823;SDS011;34640;53.590;10.054;2024-03-17T01:56:41;23.65;;;2.75;;
48823;SDS011;34640;53.590;10.054;2024-03-17T01:59:12;22.35;;;2.13;;
48823;SDS011;34640;53.590;10.054;2024-03-17T02:01:47;21.00;;;2.10;;
48823;SDS011;34640;53.590;10.054;2024-03-17T02:04:19;25.73;;;2.72;;
48823;SDS011;34640;53.590;10.054;2024-03-17T02:06:52;15.60;;;1.83;;
48823;SDS011;34640;53.590;10.054;2024-03-17T02:09:23;21.10;;;2.63;;
48823;SDS011;34640;53.590;10.054;2024-03-17T02:11:56;17.00;;;3.88;;
48823;SDS011;34640;53.590;10.054;2024-03-17T02:14:27;25.13;;;2.25;;
48823;SDS011;34640;53.590;10.054;2024-03-17T02:17:03;16.38;;;2.28;;
48823;SDS011;34640;53.590;10.054;2024-03-17T02:19:34;22.83;;;2.10;;
48823;SDS011;34640;53.590;10.054;2024-03-17T02:22:11;17.23;;;2.00;;
48823;SDS011;34640;53.590;10.054;2024-03-17T02:24:44;12.68;;;2.00;;
48823;SDS011;34640;53.590;10.054;2024-03-17T02:27:17;28.55;;;2.83;;
48823;SDS011;34640;53.590;10.054;2024-03-17T02:29:48;16.92;;;1.98;;
48823;SDS011;34640;53.590;10.054;2024-03-17T02:32:20;15.02;;;2.60;;
48823;SDS011;34640;53.590;10.054;2024-03-17T02:34:53;26.05;;;2.33;;
48823;SDS011;34640;53.590;10.054;2024-03-17T02:37:28;27.92;;;2.22;;
48823;SDS011;34640;53.590;10.054;2024-03-17T02:40:01;24.80;;;2.63;;
48823;SDS011;34640;53.590;10.054;2024-03-17T02:42:36;27.33;;;2.92;;
48823;SDS011;34640;53.590;10.054;2024-03-17T02:45:11;21.85;;;2.03;;
48823;SDS011;34640;53.590;10.054;2024-03-17T02:47:43;25.55;;;3.90;;
48823;SDS011;34640;53.590;10.054;2024-03-17T02:50:16;23.00;;;3.17;;
48823;SDS011;34640;53.590;10.054;2024-03-17T02:52:49;18.48;;;2.35;;
48823;SDS011;34640;53.590;10.054;2024-03-17T02:55:21;25.40;;;2.25;;
48823;SDS011;34640;53.590;10.054;2024-03-17T02:57:53;13.73;;;2.42;;
48823;SDS011;34640;53.590;10.054;2024-03-17T03:00:25;23.95;;;2.95;;
48823;SDS011;34640;53.590;10.054;2024-03-17T03:03:05;26.13;;;2.05;;
48823;SDS011;34640;53.590;10.054;2024-03-17T03:05:56;24.67;;;3.67;;
48823;SDS011;34640;53.590;10.054;2024-03-17T03:08:30;18.70;;;2.38;;
48823;SDS011;34640;53.590;10.054;2024-03-17T03:11:04;20.38;;;2.10;;
48823;SDS011;34640;53.590;10.054;2024-03-17T03:13:38;22.65;;;3.10;;
48823;SDS011;34640;53.590;10.054;2024-03-17T03:16:12;20.90;;;3.92;;
48823;SDS011;34640;53.590;10.054;2024-03-17T03:18:45;24.88;;;2.83;;
48823;SDS011;34640;53.590;10.054;2024-03-17T03:21:17;19.25;;;2.13;;
48823;SDS011;34640;53.590;10.054;2024-03-17T03:23:52;20.73;;;2.38;;
48823;SDS011;34640;53.590;10.054;2024-03-17T03:26:24;29.27;;;2.90;;
48823;SDS011;34640;53.590;10.054;2024-03-17T03:28:56;24.00;;;2.30;;
48823;SDS011;34640;53.590;10.054;2024-03-17T03:31:28;16.67;;;2.33;;
48823;SDS011;34640;53.590;10.054;2024-03-17T03:34:00;20.02;;;2.22;;
48823;SDS011;34640;53.590;10.054;2024-03-17T03:36:33;21.50;;;2.08;;
48823;SDS011;34640;53.590;10.054;2024-03-17T03:39:07;16.75;;;2.20;;
48823;SDS011;34640;53.590;10.054;2024-03-17T03:41:43;20.88;;;2.50;;
48823;SDS011;34640;53.590;10.054;2024-03-17T03:44:15;20.55;;;2.28;;
48823;SDS011;34640;53.590;10.054;2024-03-17T03:46:47;17.85;;;2.30;;
48823;SDS011;34640;53.590;10.054;2024-03-17T03:49:19;19.15;;;2.45;;
48823;SDS011;34640;53.590;10.054;2024-03-17T03:51:51;25.77;;;2.40;;
48823;SDS011;34640;53.590;10.054;2024-03-17T03:54:24;15.70;;;2.20;;
48823;SDS011;34640;53.590;10.054;2024-03-17T03:56:56;26.70;;;2.63;;
48823;SDS011;34640;53.590;10.054;2024-03-17T03:59:29;20.48;;;2.58;;
48823;SDS011;34640;53.590;10.054;2024-03-17T04:02:02;20.20;;;2.40;;
48823;SDS011;34640;53.590;10.054;2024-03-17T04:04:35;32.10;;;2.40;;
48823;SDS011;34640;53.590;10.054;2024-03-17T04:07:08;26.33;;;2.50;;
48823;SDS011;34640;53.590;10.054;2024-03-17T04:09:44;23.92;;;2.97;;
48823;SDS011;34640;53.590;10.054;2024-03-17T04:12:19;19.88;;;2.38;;
48823;SDS011;34640;53.590;10.054;2024-03-17T04:14:51;20.77;;;2.17;;
48823;SDS011;34640;53.590;10.054;2024-03-17T04:17:23;25.15;;;3.03;;
48823;SDS011;34640;53.590;10.054;2024-03-17T04:19:56;20.77;;;2.10;;
48823;SDS011;34640;53.590;10.054;2024-03-17T04:22:29;18.48;;;2.42;;
48823;SDS011;34640;53.590;10.054;2024-03-17T04:25:03;13.18;;;2.08;;
48823;SDS011;34640;53.590;10.054;2024-03-17T04:27:35;24.45;;;3.03;;
48823;SDS011;34640;53.590;10.054;2024-03-17T04:30:08;20.98;;;2.67;;
48823;SDS011;34640;53.590;10.054;2024-03-17T04:32:42;16.77;;;3.75;;
48823;SDS011;34640;53.590;10.054;2024-03-17T04:35:14;22.10;;;2.38;;
48823;SDS011;34640;53.590;10.054;2024-03-17T04:37:47;18.65;;;2.38;;
48823;SDS011;34640;53.590;10.054;2024-03-17T04:40:20;20.27;;;2.70;;
48823;SDS011;34640;53.590;10.054;2024-03-17T04:42:52;20.40;;;2.45;;
48823;SDS011;34640;53.590;10.054;2024-03-17T04:45:27;20.55;;;2.95;;
48823;SDS011;34640;53.590;10.054;2024-03-17T04:47:59;19.27;;;3.20;;
48823;SDS011;34640;53.590;10.054;2024-03-17T04:50:31;21.98;;;3.15;;
48823;SDS011;34640;53.590;10.054;2024-03-17T04:53:03;25.75;;;2.40;;
48823;SDS011;34640;53.590;10.054;2024-03-17T04:55:37;16.73;;;2.88;;
48823;SDS011;34640;53.590;10.054;2024-03-17T04:58:09;22.65;;;2.42;;
48823;SDS011;34640;53.590;10.054;2024-03-17T05:00:41;24.75;;;3.00;;
48823;SDS011;34640;53.590;10.054;2024-03-17T05:03:13;21.52;;;2.40;;
48823;SDS011;34640;53.590;10.054;2024-03-17T05:05:46;24.25;;;2.75;;
48823;SDS011;34640;53.590;10.054;2024-03-17T05:08:18;28.77;;;2.92;;
48823;SDS011;34640;53.590;10.054;2024-03-17T05:10:56;25.58;;;3.92;;
48823;SDS011;34640;53.590;10.054;2024-03-17T05:13:29;17.53;;;2.37;;
48823;SDS011;34640;53.590;10.054;2024-03-17T05:16:02;17.63;;;2.50;;
48823;SDS011;34640;53.590;10.054;2024-03-17T05:18:37;21.55;;;2.70;;
48823;SDS011;34640;53.590;10.054;2024-03-17T05:21:10;25.23;;;3.58;;
48823;SDS011;34640;53.590;10.054;2024-03-17T05:23:44;20.60;;;2.58;;
48823;SDS011;34640;53.590;10.054;2024-03-17T05:26:18;25.58;;;2.25;;
48823;SDS011;34640;53.590;10.054;2024-03-17T05:28:50;17.60;;;2.40;;
48823;SDS011;34640;53.590;10.054;2024-03-17T05:31:23;19.50;;;3.17;;
48823;SDS011;34640;53.590;10.054;2024-03-17T05:33:55;19.10;;;2.80;;
48823;SDS011;34640;53.590;10.054;2024-03-17T05:36:27;18.33;;;2.42;;
48823;SDS011;34640;53.590;10.054;2024-03-17T05:39:04;32.45;;;5.53;;
48823;SDS011;34640;53.590;10.054;2024-03-17T05:41:39;16.77;;;2.80;;
48823;SDS011;34640;53.590;10.054;2024-03-17T05:44:14;20.55;;;2.60;;
48823;SDS011;34640;53.590;10.054;2024-03-17T05:46:47;19.25;;;3.10;;
48823;SDS011;34640;53.590;10.054;2024-03-17T05:49:19;16.48;;;2.30;;
48823;SDS011;34640;53.590;10.054;2024-03-17T05:51:51;22.35;;;2.85;;
48823;SDS011;34640;53.590;10.054;2024-03-17T05:54:24;13.50;;;2.25;;
48823;SDS011;34640;53.590;10.054;2024-03-17T05:56:59;20.60;;;2.58;;
48823;SDS011;34640;53.590;10.054;2024-03-17T05:59:34;16.45;;;2.97;;
48823;SDS011;34640;53.590;10.054;2024-03-17T06:02:06;21.33;;;2.80;;
48823;SDS011;34640;53.590;10.054;2024-03-17T06:04:41;25.38;;;3.67;;
48823;SDS011;34640;53.590;10.054;2024-03-17T06:07:14;21.48;;;3.20;;
48823;SDS011;34640;53.590;10.054;2024-03-17T06:09:47;17.38;;;3.80;;
48823;SDS011;34640;53.590;10.054;2024-03-17T06:12:21;23.20;;;2.70;;
48823;SDS011;34640;53.590;10.054;2024-03-17T06:14:53;15.55;;;3.92;;
48823;SDS011;34640;53.590;10.054;2024-03-17T06:17:25;21.90;;;3.38;;
48823;SDS011;34640;53.590;10.054;2024-03-17T06:19:59;18.02;;;2.92;;
48823;SDS011;34640;53.590;10.054;2024-03-17T06:22:33;26.45;;;2.97;;
48823;SDS011;34640;53.590;10.054;2024-03-17T06:25:05;24.13;;;3.17;;
48823;SDS011;34640;53.590;10.054;2024-03-17T06:27:40;23.23;;;3.63;;
48823;SDS011;34640;53.590;10.054;2024-03-17T06:30:14;17.80;;;3.20;;
48823;SDS011;34640;53.590;10.054;2024-03-17T06:32:46;25.27;;;3.30;;
48823;SDS011;34640;53.590;10.054;2024-03-17T06:35:19;22.70;;;4.43;;
48823;SDS011;34640;53.590;10.054;2024-03-17T06:37:58;18.05;;;3.60;;
48823;SDS011;34640;53.590;10.054;2024-03-17T06:40:30;18.77;;;2.97;;
48823;SDS011;34640;53.590;10.054;2024-03-17T06:43:05;16.42;;;3.30;;
48823;SDS011;34640;53.590;10.054;2024-03-17T06:45:38;12.55;;;2.20;;
48823;SDS011;34640;53.590;10.054;2024-03-17T06:48:10;24.38;;;4.10;;
48823;SDS011;34640;53.590;10.054;2024-03-17T06:50:42;14.63;;;2.80;;
48823;SDS011;34640;53.590;10.054;2024-03-17T06:53:14;15.13;;;2.45;;
48823;SDS011;34640;53.590;10.054;2024-03-17T06:55:52;15.93;;;2.83;;
48823;SDS011;34640;53.590;10.054;2024-03-17T06:58:26;18.40;;;3.20;;
48823;SDS011;34640;53.590;10.054;2024-03-17T07:01:00;19.50;;;2.53;;
48823;SDS011;34640;53.590;10.054;2024-03-17T07:03:32;19.33;;;2.40;;
48823;SDS011;34640;53.590;10.054;2024-03-17T07:06:06;15.32;;;2.03;;
48823;SDS011;34640;53.590;10.054;2024-03-17T07:08:39;16.85;;;2.28;;
48823;SDS011;34640;53.590;10.054;2024-03-17T07:11:13;14.00;;;2.25;;
48823;SDS011;34640;53.590;10.054;2024-03-17T07:13:48;18.58;;;2.45;;
48823;SDS011;34640;53.590;10.054;2024-03-17T07:16:21;17.63;;;3.22;;
48823;SDS011;34640;53.590;10.054;2024-03-17T07:18:56;13.98;;;2.20;;
48823;SDS011;34640;53.590;10.054;2024-03-17T07:21:30;10.35;;;2.00;;
48823;SDS011;34640;53.590;10.054;2024-03-17T07:24:03;13.60;;;1.95;;
48823;SDS011;34640;53.590;10.054;2024-03-17T07:26:35;18.35;;;2.45;;
48823;SDS011;34640;53.590;10.054;2024-03-17T07:29:09;22.27;;;2.60;;
48823;SDS011;34640;53.590;10.054;2024-03-17T07:31:41;11.68;;;2.53;;
48823;SDS011;34640;53.590;10.054;2024-03-17T07:34:14;15.00;;;2.40;;
48823;SDS011;34640;53.590;10.054;2024-03-17T07:36:46;11.82;;;1.65;;
48823;SDS011;34640;53.590;10.054;2024-03-17T07:39:18;17.77;;;3.60;;
48823;SDS011;34640;53.590;10.054;2024-03-17T07:41:50;14.70;;;1.85;;
48823;SDS011;34640;53.590;10.054;2024-03-17T07:44:23;17.13;;;2.28;;
48823;SDS011;34640;53.590;10.054;2024-03-17T07:46:55;12.13;;;1.42;;
48823;SDS011;34640;53.590;10.054;2024-03-17T07:49:27;15.43;;;1.65;;
48823;SDS011;34640;53.590;10.054;2024-03-17T07:51:59;16.98;;;1.77;;
48823;SDS011;34640;53.590;10.054;2024-03-17T07:54:32;15.48;;;1.67;;
48823;SDS011;34640;53.590;10.054;2024-03-17T07:57:05;14.18;;;1.77;;
48823;SDS011;34640;53.590;10.054;2024-03-17T07:59:40;13.93;;;1.92;;
48823;SDS011;34640;53.590;10.054;2024-03-17T08:02:13;17.45;;;2.97;;
48823;SDS011;34640;53.590;10.054;2024-03-17T08:04:45;11.75;;;2.28;;
48823;SDS011;34640;53.590;10.054;2024-03-17T08:07:17;17.38;;;1.77;;
48823;SDS011;34640;53.590;10.054;2024-03-17T08:09:49;13.63;;;1.70;;
48823;SDS011;34640;53.590;10.054;2024-03-17T08:12:21;11.77;;;1.45;;
48823;SDS011;34640;53.590;10.054;2024-03-17T08:14:55;13.65;;;2.50;;
48823;SDS011;34640;53.590;10.054;2024-03-17T08:17:27;12.35;;;2.20;;
48823;SDS011;34640;53.590;10.054;2024-03-17T08:19:59;7.93;;;1.63;;
48823;SDS011;34640;53.590;10.054;2024-03-17T08:22:31;14.50;;;1.85;;
48823;SDS011;34640;53.590;10.054;2024-03-17T08:25:03;8.80;;;1.67;;
48823;SDS011;34640;53.590;10.054;2024-03-17T08:27:36;13.18;;;1.48;;
48823;SDS011;34640;53.590;10.054;2024-03-17T08:30:10;11.95;;;1.42;;
48823;SDS011;34640;53.590;10.054;2024-03-17T08:32:43;11.55;;;1.65;;
48823;SDS011;34640;53.590;10.054;2024-03-17T08:35:15;9.20;;;1.10;;
48823;SDS011;34640;53.590;10.054;2024-03-17T08:37:47;9.93;;;1.50;;
48823;SDS011;34640;53.590;10.054;2024-03-17T08:40:21;8.50;;;1.55;;
48823;SDS011;34640;53.590;10.054;2024-03-17T08:42:54;12.88;;;1.40;;
48823;SDS011;34640;53.590;10.054;2024-03-17T08:45:27;19.55;;;1.60;;
48823;SDS011;34640;53.590;10.054;2024-03-17T08:47:59;11.93;;;1.30;;
48823;SDS011;34640;53.590;10.054;2024-03-17T08:50:31;20.13;;;2.10;;
48823;SDS011;34640;53.590;10.054;2024-03-17T08:53:04;14.05;;;1.38;;
48823;SDS011;34640;53.590;10.054;2024-03-17T08:55:38;10.75;;;1.40;;
48823;SDS011;34640;53.590;10.054;2024-03-17T08:58:10;12.48;;;1.50;;
48823;SDS011;34640;53.590;10.054;2024-03-17T09:00:44;11.32;;;1.58;;
48823;SDS011;34640;53.590;10.054;2024-03-17T09:03:16;10.93;;;1.30;;
48823;SDS011;34640;53.590;10.054;2024-03-17T09:05:48;7.95;;;1.48;;
48823;SDS011;34640;53.590;10.054;2024-03-17T09:08:23;11.75;;;1.30;;
48823;SDS011;34640;53.590;10.054;2024-03-17T09:10:57;13.18;;;2.72;;
48823;SDS011;34640;53.590;10.054;2024-03-17T09:13:29;9.18;;;1.20;;
48823;SDS011;34640;53.590;10.054;2024-03-17T09:16:02;9.65;;;1.25;;
48823;SDS011;34640;53.590;10.054;2024-03-17T09:18:35;11.77;;;1.75;;
48823;SDS011;34640;53.590;10.054;2024-03-17T09:21:08;10.93;;;0.90;;
48823;SDS011;34640;53.590;10.054;2024-03-17T09:23:40;7.10;;;1.15;;
48823;SDS011;34640;53.590;10.054;2024-03-17T09:26:12;10.40;;;1.23;;
48823;SDS011;34640;53.590;10.054;2024-03-17T09:28:46;14.68;;;1.92;;
48823;SDS011;34640;53.590;10.054;2024-03-17T09:31:20;13.77;;;1.50;;
48823;SDS011;34640;53.590;10.054;2024-03-17T09:33:52;11.27;;;1.50;;
48823;SDS011;34640;53.590;10.054;2024-03-17T09:36:24;15.88;;;1.63;;
48823;SDS011;34640;53.590;10.054;2024-03-17T09:38:57;11.57;;;1.20;;
48823;SDS011;34640;53.590;10.054;2024-03-17T09:41:32;14.88;;;1.50;;
48823;SDS011;34640;53.590;10.054;2024-03-17T09:44:04;8.45;;;1.35;;
48823;SDS011;34640;53.590;10.054;2024-03-17T09:46:42;14.93;;;1.95;;
48823;SDS011;34640;53.590;10.054;2024-03-17T09:49:14;22.85;;;2.60;;
48823;SDS011;34640;53.590;10.054;2024-03-17T09:51:48;13.55;;;1.70;;
48823;SDS011;34640;53.590;10.054;2024-03-17T09:54:22;8.25;;;1.45;;
48823;SDS011;34640;53.590;10.054;2024-03-17T09:56:54;13.40;;;2.25;;
48823;SDS011;34640;53.590;10.054;2024-03-17T09:59:26;12.23;;;1.60;;
48823;SDS011;34640;53.590;10.054;2024-03-17T10:02:00;9.20;;;1.52;;
48823;SDS011;34640;53.590;10.054;2024-03-17T10:04:35;20.63;;;1.90;;
48823;SDS011;34640;53.590;10.054;2024-03-17T10:07:07;17.05;;;2.05;;
48823;SDS011;34640;53.590;10.054;2024-03-17T10:09:40;19.17;;;1.92;;
48823;SDS011;34640;53.590;10.054;2024-03-17T10:12:25;9.32;;;1.80;;
48823;SDS011;34640;53.590;10.054;2024-03-17T10:14:59;15.50;;;1.70;;
48823;SDS011;34640;53.590;10.054;2024-03-17T10:17:36;11.15;;;1.98;;
48823;SDS011;34640;53.590;10.054;2024-03-17T10:20:12;15.90;;;1.33;;
48823;SDS011;34640;53.590;10.054;2024-03-17T10:23:00;12.45;;;1.50;;
48823;SDS011;34640;53.590;10.054;2024-03-17T10:25:34;15.13;;;2.55;;
48823;SDS011;34640;53.590;10.054;2024-03-17T10:28:10;15.32;;;2.25;;
48823;SDS011;34640;53.590;10.054;2024-03-17T10:30:56;9.32;;;1.75;;
48823;SDS011;34640;53.590;10.054;2024-03-17T10:33:34;14.98;;;1.80;;
48823;SDS011;34640;53.590;10.054;2024-03-17T10:36:15;9.95;;;1.15;;
48823;SDS011;34640;53.590;10.054;2024-03-17T10:38:51;11.05;;;2.47;;
48823;SDS011;34640;53.590;10.054;2024-03-17T10:41:23;12.82;;;1.70;;
48823;SDS011;34640;53.590;10.054;2024-03-17T10:43:59;11.40;;;1.63;;
48823;SDS011;34640;53.590;10.054;2024-03-17T10:46:32;11.20;;;1.20;;
48823;SDS011;34640;53.590;10.054;2024-03-17T10:49:07;14.80;;;1.90;;
48823;SDS011;34640;53.590;10.054;2024-03-17T10:51:42;16.50;;;2.55;;
48823;SDS011;34640;53.590;10.054;2024-03-17T10:54:21;10.15;;;1.38;;
48823;SDS011;34640;53.590;10.054;2024-03-17T10:57:02;14.02;;;1.67;;
48823;SDS011;34640;53.590;10.054;2024-03-17T10:59:48;8.40;;;1.80;;
48823;SDS011;34640;53.590;10.054;2024-03-17T11:02:24;8.63;;;1.45;;
48823;SDS011;34640;53.590;10.054;2024-03-17T11:05:00;10.77;;;1.40;;
48823;SDS011;34640;53.590;10.054;2024-03-17T11:07:34;14.90;;;1.52;;
48823;SDS011;34640;53.590;10.054;2024-03-17T11:10:09;9.35;;;1.55;;
48823;SDS011;34640;53.590;10.054;2024-03-17T11:12:48;9.13;;;1.42;;
48823;SDS011;34640;53.590;10.054;2024-03-17T11:15:37;10.52;;;1.42;;
48823;SDS011;34640;53.590;10.054;2024-03-17T11:18:28;11.60;;;2.08;;
48823;SDS011;34640;53.590;10.054;2024-03-17T11:21:07;15.65;;;1.75;;
48823;SDS011;34640;53.590;10.054;2024-03-17T11:23:54;13.52;;;1.63;;
48823;SDS011;34640;53.590;10.054;2024-03-17T11:26:30;11.53;;;1.30;;
48823;SDS011;34640;53.590;10.054;2024-03-17T11:29:06;9.63;;;1.40;;
48823;SDS011;34640;53.590;10.054;2024-03-17T11:32:00;7.07;;;2.22;;
48823;SDS011;34640;53.590;10.054;2024-03-17T11:34:33;15.65;;;3.60;;
48823;SDS011;34640;53.590;10.054;2024-03-17T11:37:08;11.77;;;1.52;;
48823;SDS011;34640;53.590;10.054;2024-03-17T11:40:24;13.20;;;1.60;;
48823;SDS011;34640;53.590;10.054;2024-03-17T11:43:02;9.07;;;1.55;;
48823;SDS011;34640;53.590;10.054;2024-03-17T11:45:36;10.88;;;1.48;;
48823;SDS011;34640;53.590;10.054;2024-03-17T11:48:11;16.25;;;1.60;;
48823;SDS011;34640;53.590;10.054;2024-03-17T11:50:46;5.75;;;1.30;;
48823;SDS011;34640;53.590;10.054;2024-03-17T11:53:21;10.32;;;1.35;;
48823;SDS011;34640;53.590;10.054;2024-03-17T11:55:53;7.95;;;1.35;;
48823;SDS011;34640;53.590;10.054;2024-03-17T11:58:24;7.80;;;1.27;;
48823;SDS011;34640;53.590;10.054;2024-03-17T12:00:57;10.10;;;1.13;;
48823;SDS011;34640;53.590;10.054;2024-03-17T12:03:30;11.10;;;1.63;;
48823;SDS011;34640;53.590;10.054;2024-03-17T12:06:02;11.05;;;1.60;;
48823;SDS011;34640;53.590;10.054;2024-03-17T12:08:37;10.32;;;1.30;;
48823;SDS011;34640;53.590;10.054;2024-03-17T12:11:15;9.20;;;1.70;;
48823;SDS011;34640;53.590;10.054;2024-03-17T12:13:47;11.90;;;3.05;;
48823;SDS011;34640;53.590;10.054;2024-03-17T12:16:21;22.10;;;2.17;;
48823;SDS011;34640;53.590;10.054;2024-03-17T12:18:52;8.50;;;1.20;;
48823;SDS011;34640;53.590;10.054;2024-03-17T12:21:24;6.93;;;1.25;;
48823;SDS011;34640;53.590;10.054;2024-03-17T12:23:56;14.63;;;1.55;;
48823;SDS011;34640;53.590;10.054;2024-03-17T12:26:30;11.20;;;1.40;;
48823;SDS011;34640;53.590;10.054;2024-03-17T12:29:03;10.70;;;2.30;;
48823;SDS011;34640;53.590;10.054;2024-03-17T12:31:35;9.40;;;1.52;;
48823;SDS011;34640;53.590;10.054;2024-03-17T12:34:06;9.40;;;1.00;;
48823;SDS011;34640;53.590;10.054;2024-03-17T12:36:38;11.02;;;1.52;;
48823;SDS011;34640;53.590;10.054;2024-03-17T12:39:11;7.45;;;1.20;;
48823;SDS011;34640;53.590;10.054;2024-03-17T12:42:02;11.25;;;1.52;;
48823;SDS011;34640;53.590;10.054;2024-03-17T12:44:37;7.35;;;1.05;;
48823;SDS011;34640;53.590;10.054;2024-03-17T12:47:14;10.77;;;1.67;;
48823;SDS011;34640;53.590;10.054;2024-03-17T12:49:46;8.52;;;1.20;;
48823;SDS011;34640;53.590;10.054;2024-03-17T12:52:22;7.35;;;1.35;;
48823;SDS011;34640;53.590;10.054;2024-03-17T12:54:57;9.85;;;1.40;;
48823;SDS011;34640;53.590;10.054;2024-03-17T12:57:44;11.30;;;1.23;;
48823;SDS011;34640;53.590;10.054;2024-03-17T13:00:34;11.77;;;1.42;;
48823;SDS011;34640;53.590;10.054;2024-03-17T13:03:06;11.82;;;1.50;;
48823;SDS011;34640;53.590;10.054;2024-03-17T13:05:39;11.13;;;1.63;;
48823;SDS011;34640;53.590;10.054;2024-03-17T13:08:19;6.47;;;1.23;;
48823;SDS011;34640;53.590;10.054;2024-03-17T13:10:52;8.73;;;1.25;;
48823;SDS011;34640;53.590;10.054;2024-03-17T13:13:25;11.00;;;1.48;;
48823;SDS011;34640;53.590;10.054;2024-03-17T13:15:57;9.18;;;1.52;;
48823;SDS011;34640;53.590;10.054;2024-03-17T13:18:31;14.85;;;1.75;;
48823;SDS011;34640;53.590;10.054;2024-03-17T13:21:03;10.75;;;1.42;;
48823;SDS011;34640;53.590;10.054;2024-03-17T13:23:35;13.00;;;1.55;;
48823;SDS011;34640;53.590;10.054;2024-03-17T13:26:09;10.27;;;1.75;;
48823;SDS011;34640;53.590;10.054;2024-03-17T13:28:41;9.38;;;1.33;;
48823;SDS011;34640;53.590;10.054;2024-03-17T13:31:13;9.13;;;1.60;;
48823;SDS011;34640;53.590;10.054;2024-03-17T13:33:46;11.63;;;1.77;;
48823;SDS011;34640;53.590;10.054;2024-03-17T13:36:20;15.07;;;1.60;;
48823;SDS011;34640;53.590;10.054;2024-03-17T13:38:52;10.40;;;1.52;;
48823;SDS011;34640;53.590;10.054;2024-03-17T13:41:26;15.38;;;2.05;;
48823;SDS011;34640;53.590;10.054;2024-03-17T13:43:58;9.98;;;1.50;;
48823;SDS011;34640;53.590;10.054;2024-03-17T13:46:31;15.07;;;1.70;;
48823;SDS011;34640;53.590;10.054;2024-03-17T13:49:06;11.45;;;1.85;;
48823;SDS011;34640;53.590;10.054;2024-03-17T13:51:39;11.43;;;1.80;;
48823;SDS011;34640;53.590;10.054;2024-03-17T13:54:12;10.57;;;1.80;;
48823;SDS011;34640;53.590;10.054;2024-03-17T13:56:48;10.85;;;1.63;;
48823;SDS011;34640;53.590;10.054;2024-03-17T13:59:21;11.02;;;1.50;;
48823;SDS011;34640;53.590;10.054;2024-03-17T14:01:53;10.13;;;2.13;;
48823;SDS011;34640;53.590;10.054;2024-03-17T14:04:27;7.95;;;1.40;;
48823;SDS011;34640;53.590;10.054;2024-03-17T14:07:00;9.82;;;1.50;;
48823;SDS011;34640;53.590;10.054;2024-03-17T14:09:32;15.82;;;2.20;;
48823;SDS011;34640;53.590;10.054;2024-03-17T14:12:05;9.25;;;1.65;;
48823;SDS011;34640;53.590;10.054;2024-03-17T14:14:38;13.55;;;1.60;;
48823;SDS011;34640;53.590;10.054;2024-03-17T14:17:11;9.35;;;1.58;;
48823;SDS011;34640;53.590;10.054;2024-03-17T14:19:44;9.52;;;1.83;;
48823;SDS011;34640;53.590;10.054;2024-03-17T14:22:16;5.03;;;1.30;;
48823;SDS011;34640;53.590;10.054;2024-03-17T14:24:48;7.28;;;1.42;;
48823;SDS011;34640;53.590;10.054;2024-03-17T14:27:22;13.35;;;1.42;;
48823;SDS011;34640;53.590;10.054;2024-03-17T14:29:57;13.57;;;1.83;;
48823;SDS011;34640;53.590;10.054;2024-03-17T14:32:30;12.75;;;1.48;;
48823;SDS011;34640;53.590;10.054;2024-03-17T14:35:02;11.15;;;1.77;;
48823;SDS011;34640;53.590;10.054;2024-03-17T14:37:36;14.45;;;1.42;;
48823;SDS011;34640;53.590;10.054;2024-03-17T14:40:08;9.57;;;1.50;;
48823;SDS011;34640;53.590;10.054;2024-03-17T14:42:48;10.57;;;1.65;;
48823;SDS011;34640;53.590;10.054;2024-03-17T14:45:21;12.40;;;1.95;;
48823;SDS011;34640;53.590;10.054;2024-03-17T14:47:58;10.40;;;1.65;;
48823;SDS011;34640;53.590;10.054;2024-03-17T14:50:33;12.27;;;2.72;;
48823;SDS011;34640;53.590;10.054;2024-03-17T14:53:08;11.93;;;1.70;;
48823;SDS011;34640;53.590;10.054;2024-03-17T14:55:40;11.05;;;1.33;;
48823;SDS011;34640;53.590;10.054;2024-03-17T14:58:17;8.25;;;1.65;;
48823;SDS011;34640;53.590;10.054;2024-03-17T15:00:49;9.73;;;1.60;;
48823;SDS011;34640;53.590;10.054;2024-03-17T15:03:23;10.80;;;1.38;;